sensor_id;sensor_type;location;lat;lon;timestamp;pressure;altitude;pressure_sealevel;temperature;humidity
7018;BME280;3549;42.162;24.726;2023-02-23T00:01:39;47342.25;;;-141.97;64.86
7018;BME280;3549;42.162;24.726;2023-02-23T00:04:05;47469.09;;;-141.97;64.95
7018;BME280;3549;42.162;24.726;2023-02-23T00:06:32;47507.53;;;-141.97;64.51
7018;BME280;3549;42.162;24.726;2023-02-23T00:08:59;47449.88;;;-141.97;64.51
7018;BME280;3549;42.162;24.726;2023-02-23T00:11:25;47522.91;;;-141.97;65.34
7018;BME280;3549;42.162;24.726;2023-02-23T00:13:51;47601.72;;;-141.97;64.97
7018;BME280;3549;42.162;24.726;2023-02-23T00:16:22;47519.06;;;-141.97;64.98
7018;BME280;3549;42.162;24.726;2023-02-23T00:18:50;47592.13;;;-141.97;65.90
7018;BME280;3549;42.162;24.726;2023-02-23T00:21:25;47503.69;;;-141.97;65.75
7018;BME280;3549;42.162;24.726;2023-02-23T00:23:55;47494.09;;;-141.97;65.55
7018;BME280;3549;42.162;24.726;2023-02-23T00:26:23;47530.59;;;-141.97;65.53
7018;BME280;3549;42.162;24.726;2023-02-23T00:28:51;47501.78;;;-141.97;65.65
7018;BME280;3549;42.162;24.726;2023-02-23T00:31:17;47503.69;;;-141.97;65.44
7018;BME280;3549;42.162;24.726;2023-02-23T00:33:43;47438.34;;;-141.97;65.28
7018;BME280;3549;42.162;24.726;2023-02-23T00:36:11;47536.38;;;-141.97;65.81
7018;BME280;3549;42.162;24.726;2023-02-23T00:38:38;47513.31;;;-141.97;65.82
7018;BME280;3549;42.162;24.726;2023-02-23T00:41:14;47517.16;;;-141.97;65.82
7018;BME280;3549;42.162;24.726;2023-02-23T00:43:59;47505.63;;;-141.97;65.55
7018;BME280;3549;42.162;24.726;2023-02-23T00:46:28;47511.38;;;-141.97;65.47
7018;BME280;3549;42.162;24.726;2023-02-23T00:48:55;47522.91;;;-141.97;65.16
7018;BME280;3549;42.162;24.726;2023-02-23T00:51:23;47496.00;;;-141.97;65.35
7018;BME280;3549;42.162;24.726;2023-02-23T00:53:53;47517.16;;;-141.97;65.63
7018;BME280;3549;42.162;24.726;2023-02-23T00:56:19;47524.84;;;-141.97;65.46
7018;BME280;3549;42.162;24.726;2023-02-23T00:58:44;47530.59;;;-141.97;65.99
7018;BME280;3549;42.162;24.726;2023-02-23T01:01:11;47546.00;;;-141.97;65.81
7018;BME280;3549;42.162;24.726;2023-02-23T01:03:38;47517.16;;;-141.97;65.89
7018;BME280;3549;42.162;24.726;2023-02-23T01:06:06;47534.44;;;-141.97;66.16
7018;BME280;3549;42.162;24.726;2023-02-23T01:08:35;47553.69;;;-141.97;66.74
7018;BME280;3549;42.162;24.726;2023-02-23T01:11:08;47492.16;;;-141.97;67.14
7018;BME280;3549;42.162;24.726;2023-02-23T01:13:35;47522.91;;;-141.97;66.65
7018;BME280;3549;42.162;24.726;2023-02-23T01:16:04;47507.53;;;-141.97;67.12
7018;BME280;3549;42.162;24.726;2023-02-23T01:18:31;47465.25;;;-141.97;67.07
7018;BME280;3549;42.162;24.726;2023-02-23T01:20:59;47499.84;;;-141.97;66.63
7018;BME280;3549;42.162;24.726;2023-02-23T01:23:24;47463.34;;;-141.97;66.80
7018;BME280;3549;42.162;24.726;2023-02-23T01:25:50;47511.38;;;-141.97;66.85
7018;BME280;3549;42.162;24.726;2023-02-23T01:28:15;47449.88;;;-141.97;67.09
7018;BME280;3549;42.162;24.726;2023-02-23T01:30:41;47619.03;;;-141.97;67.60
7018;BME280;3549;42.162;24.726;2023-02-23T01:33:06;47538.28;;;-141.97;67.86
7018;BME280;3549;42.162;24.726;2023-02-23T01:35:32;47486.41;;;-141.97;67.06
7018;BME280;3549;42.162;24.726;2023-02-23T01:37:58;47492.16;;;-141.97;67.75
7018;BME280;3549;42.162;24.726;2023-02-23T01:40:24;47446.03;;;-141.97;68.04
7018;BME280;3549;42.162;24.726;2023-02-23T01:45:52;47540.22;;;-141.97;67.58
7018;BME280;3549;42.162;24.726;2023-02-23T01:48:20;47515.22;;;-141.97;67.89
7018;BME280;3549;42.162;24.726;2023-02-23T01:51:00;47588.28;;;-141.97;68.02
7018;BME280;3549;42.162;24.726;2023-02-23T01:53:30;47501.78;;;-141.97;68.56
7018;BME280;3549;42.162;24.726;2023-02-23T01:56:02;47524.84;;;-141.97;68.79
7018;BME280;3549;42.162;24.726;2023-02-23T01:58:31;47530.59;;;-141.97;68.60
7018;BME280;3549;42.162;24.726;2023-02-23T02:00:58;47542.16;;;-141.97;68.80
7018;BME280;3549;42.162;24.726;2023-02-23T02:03:39;47549.84;;;-141.97;68.65
7018;BME280;3549;42.162;24.726;2023-02-23T02:06:09;47499.84;;;-141.97;68.26
7018;BME280;3549;42.162;24.726;2023-02-23T02:08:39;47492.16;;;-141.97;68.29
7018;BME280;3549;42.162;24.726;2023-02-23T02:11:15;47444.13;;;-141.97;68.23
7018;BME280;3549;42.162;24.726;2023-02-23T02:13:59;47515.22;;;-141.97;68.65
7018;BME280;3549;42.162;24.726;2023-02-23T02:41:02;47499.84;;;-141.97;68.06
7018;BME280;3549;42.162;24.726;2023-02-23T02:51:41;47499.84;;;-141.97;68.45
7018;BME280;3549;42.162;24.726;2023-02-23T02:54:30;47521.00;;;-141.97;67.20
7018;BME280;3549;42.162;24.726;2023-02-23T02:57:00;47515.22;;;-141.97;66.51
7018;BME280;3549;42.162;24.726;2023-02-23T02:59:28;47524.84;;;-141.97;67.12
7018;BME280;3549;42.162;24.726;2023-02-23T03:02:16;47615.19;;;-141.97;67.04
7018;BME280;3549;42.162;24.726;2023-02-23T03:05:00;47488.31;;;-141.97;67.06
7018;BME280;3549;42.162;24.726;2023-02-23T03:10:56;47496.00;;;-141.97;67.84
7018;BME280;3549;42.162;24.726;2023-02-23T03:16:44;47472.94;;;-141.97;68.87
7018;BME280;3549;42.162;24.726;2023-02-23T03:19:41;47503.69;;;-141.97;69.29
7018;BME280;3549;42.162;24.726;2023-02-23T03:22:34;47515.22;;;-141.97;69.93
7018;BME280;3549;42.162;24.726;2023-02-23T03:25:51;47465.25;;;-141.97;70.21
7018;BME280;3549;42.162;24.726;2023-02-23T03:28:58;47522.91;;;-141.97;71.74
7018;BME280;3549;42.162;24.726;2023-02-23T03:37:52;47553.69;;;-141.97;71.09
7018;BME280;3549;42.162;24.726;2023-02-23T03:40:40;47499.84;;;-141.97;70.06
7018;BME280;3549;42.162;24.726;2023-02-23T03:43:31;47484.47;;;-141.97;71.35
7018;BME280;3549;42.162;24.726;2023-02-23T03:46:18;47472.94;;;-141.97;71.04
7018;BME280;3549;42.162;24.726;2023-02-23T03:49:08;47572.91;;;-141.97;71.66
7018;BME280;3549;42.162;24.726;2023-02-23T03:51:58;47530.59;;;-141.97;72.40
7018;BME280;3549;42.162;24.726;2023-02-23T03:54:53;47472.94;;;-141.97;72.40
7018;BME280;3549;42.162;24.726;2023-02-23T03:57:40;47486.41;;;-141.97;72.19
7018;BME280;3549;42.162;24.726;2023-02-23T04:00:29;47457.56;;;-141.97;72.17
7018;BME280;3549;42.162;24.726;2023-02-23T04:03:16;47544.06;;;-141.97;72.21
7018;BME280;3549;42.162;24.726;2023-02-23T04:06:03;47542.16;;;-141.97;72.07
7018;BME280;3549;42.162;24.726;2023-02-23T04:08:49;47549.84;;;-141.97;72.47
7018;BME280;3549;42.162;24.726;2023-02-23T04:14:25;47519.06;;;-141.97;72.68
7018;BME280;3549;42.162;24.726;2023-02-23T04:16:54;47501.78;;;-141.97;73.19
7018;BME280;3549;42.162;24.726;2023-02-23T04:19:20;47490.25;;;-141.97;73.63
7018;BME280;3549;42.162;24.726;2023-02-23T04:21:45;47557.53;;;-141.97;73.66
7018;BME280;3549;42.162;24.726;2023-02-23T04:24:11;47497.94;;;-141.97;73.78
7018;BME280;3549;42.162;24.726;2023-02-23T04:26:36;47478.72;;;-141.97;74.19
7018;BME280;3549;42.162;24.726;2023-02-23T04:29:02;47580.59;;;-141.97;74.06
7018;BME280;3549;42.162;24.726;2023-02-23T04:31:27;47478.72;;;-141.97;74.07
7018;BME280;3549;42.162;24.726;2023-02-23T04:33:53;47494.09;;;-141.97;74.32
7018;BME280;3549;42.162;24.726;2023-02-23T04:36:18;47534.44;;;-141.97;74.06
7018;BME280;3549;42.162;24.726;2023-02-23T04:38:44;47515.22;;;-141.97;74.60
7018;BME280;3549;42.162;24.726;2023-02-23T04:41:09;47461.41;;;-141.97;74.17
7018;BME280;3549;42.162;24.726;2023-02-23T04:43:35;47469.09;;;-141.97;74.55
7018;BME280;3549;42.162;24.726;2023-02-23T04:46:00;47503.69;;;-141.97;74.34
7018;BME280;3549;42.162;24.726;2023-02-23T04:48:26;47549.84;;;-141.97;74.34
7018;BME280;3549;42.162;24.726;2023-02-23T04:50:52;47521.00;;;-141.97;74.49
7018;BME280;3549;42.162;24.726;2023-02-23T04:53:18;47509.47;;;-141.97;74.33
7018;BME280;3549;42.162;24.726;2023-02-23T04:55:43;47507.53;;;-141.97;73.88
7018;BME280;3549;42.162;24.726;2023-02-23T04:58:09;47513.31;;;-141.97;74.40
7018;BME280;3549;42.162;24.726;2023-02-23T05:00:38;47565.22;;;-141.97;73.99
7018;BME280;3549;42.162;24.726;2023-02-23T05:03:03;47513.31;;;-141.97;73.91
7018;BME280;3549;42.162;24.726;2023-02-23T05:05:29;47524.84;;;-141.97;74.14
7018;BME280;3549;42.162;24.726;2023-02-23T05:07:55;47524.84;;;-141.97;74.21
7018;BME280;3549;42.162;24.726;2023-02-23T05:10:20;47546.00;;;-141.97;74.60
7018;BME280;3549;42.162;24.726;2023-02-23T05:12:46;47496.00;;;-141.97;74.40
7018;BME280;3549;42.162;24.726;2023-02-23T05:15:11;47534.44;;;-141.97;74.15
7018;BME280;3549;42.162;24.726;2023-02-23T05:17:38;47532.53;;;-141.97;74.46
7018;BME280;3549;42.162;24.726;2023-02-23T05:20:05;47521.00;;;-141.97;74.23
7018;BME280;3549;42.162;24.726;2023-02-23T05:22:31;47595.97;;;-141.97;73.35
7018;BME280;3549;42.162;24.726;2023-02-23T05:24:56;47503.69;;;-141.97;73.50
7018;BME280;3549;42.162;24.726;2023-02-23T05:27:21;47497.94;;;-141.97;72.70
7018;BME280;3549;42.162;24.726;2023-02-23T05:29:47;47536.38;;;-141.97;72.67
7018;BME280;3549;42.162;24.726;2023-02-23T05:32:12;47540.22;;;-141.97;72.64
7018;BME280;3549;42.162;24.726;2023-02-23T05:34:38;47507.53;;;-141.97;72.18
7018;BME280;3549;42.162;24.726;2023-02-23T05:37:03;47467.19;;;-141.97;72.12
7018;BME280;3549;42.162;24.726;2023-02-23T05:39:29;47505.63;;;-141.97;72.65
7018;BME280;3549;42.162;24.726;2023-02-23T05:41:55;47534.44;;;-141.97;72.66
7018;BME280;3549;42.162;24.726;2023-02-23T05:44:21;47549.84;;;-141.97;73.19
7018;BME280;3549;42.162;24.726;2023-02-23T05:46:46;47484.47;;;-141.97;72.76
7018;BME280;3549;42.162;24.726;2023-02-23T05:49:12;47553.69;;;-141.97;72.86
7018;BME280;3549;42.162;24.726;2023-02-23T05:51:37;47526.75;;;-141.97;72.78
7018;BME280;3549;42.162;24.726;2023-02-23T05:54:03;47544.06;;;-141.97;72.21
7018;BME280;3549;42.162;24.726;2023-02-23T05:56:29;47582.50;;;-141.97;72.56
7018;BME280;3549;42.162;24.726;2023-02-23T05:58:56;47534.44;;;-141.97;72.99
7018;BME280;3549;42.162;24.726;2023-02-23T06:01:22;47607.50;;;-141.97;73.07
7018;BME280;3549;42.162;24.726;2023-02-23T06:03:48;47597.88;;;-141.97;72.71
7018;BME280;3549;42.162;24.726;2023-02-23T06:06:15;47538.28;;;-141.97;72.12
7018;BME280;3549;42.162;24.726;2023-02-23T06:08:41;47438.34;;;-141.97;71.40
7018;BME280;3549;42.162;24.726;2023-02-23T06:11:07;47476.78;;;-141.97;71.08
7018;BME280;3549;42.162;24.726;2023-02-23T06:13:32;47513.31;;;-141.97;70.79
7018;BME280;3549;42.162;24.726;2023-02-23T06:15:58;47626.72;;;-141.97;70.77
7018;BME280;3549;42.162;24.726;2023-02-23T06:18:24;47563.28;;;-141.97;71.10
7018;BME280;3549;42.162;24.726;2023-02-23T06:20:50;47511.38;;;-141.97;71.08
7018;BME280;3549;42.162;24.726;2023-02-23T06:23:15;47553.69;;;-141.97;71.11
7018;BME280;3549;42.162;24.726;2023-02-23T06:25:42;47534.44;;;-141.97;70.75
7018;BME280;3549;42.162;24.726;2023-02-23T06:28:08;47553.69;;;-141.97;70.64
7018;BME280;3549;42.162;24.726;2023-02-23T06:30:35;47557.53;;;-141.97;70.14
7018;BME280;3549;42.162;24.726;2023-02-23T06:33:01;47553.69;;;-141.97;69.55
7018;BME280;3549;42.162;24.726;2023-02-23T06:35:27;47517.16;;;-141.97;69.24
7018;BME280;3549;42.162;24.726;2023-02-23T06:37:52;47586.34;;;-141.97;69.55
7018;BME280;3549;42.162;24.726;2023-02-23T06:40:18;47463.34;;;-141.97;69.40
7018;BME280;3549;42.162;24.726;2023-02-23T06:42:44;47476.78;;;-141.97;69.20
7018;BME280;3549;42.162;24.726;2023-02-23T06:45:09;47536.38;;;-141.97;69.35
7018;BME280;3549;42.162;24.726;2023-02-23T06:47:35;47515.22;;;-141.97;68.86
7018;BME280;3549;42.162;24.726;2023-02-23T06:50:00;47513.31;;;-141.97;68.44
7018;BME280;3549;42.162;24.726;2023-02-23T06:52:28;47526.75;;;-141.97;67.96
7018;BME280;3549;42.162;24.726;2023-02-23T06:54:53;47586.34;;;-141.97;67.40
7018;BME280;3549;42.162;24.726;2023-02-23T06:57:19;47594.03;;;-141.97;67.46
7018;BME280;3549;42.162;24.726;2023-02-23T06:59:45;47530.59;;;-141.97;67.52
7018;BME280;3549;42.162;24.726;2023-02-23T07:02:13;47497.94;;;-141.97;66.74
7018;BME280;3549;42.162;24.726;2023-02-23T07:04:39;47599.81;;;-141.97;65.58
7018;BME280;3549;42.162;24.726;2023-02-23T07:07:04;47538.28;;;-141.97;64.82
7018;BME280;3549;42.162;24.726;2023-02-23T07:09:30;47507.53;;;-141.97;63.43
7018;BME280;3549;42.162;24.726;2023-02-23T07:11:55;47565.22;;;-141.97;61.71
7018;BME280;3549;42.162;24.726;2023-02-23T07:14:21;47519.06;;;-141.97;62.17
7018;BME280;3549;42.162;24.726;2023-02-23T07:16:46;47551.75;;;-141.97;61.89
7018;BME280;3549;42.162;24.726;2023-02-23T07:19:12;47440.28;;;-141.97;59.97
7018;BME280;3549;42.162;24.726;2023-02-23T07:21:37;47555.59;;;-141.97;58.70
7018;BME280;3549;42.162;24.726;2023-02-23T07:24:03;47476.78;;;-141.97;58.05
7018;BME280;3549;42.162;24.726;2023-02-23T07:26:31;47522.91;;;-141.97;57.01
7018;BME280;3549;42.162;24.726;2023-02-23T07:28:58;47595.97;;;-141.97;56.34
7018;BME280;3549;42.162;24.726;2023-02-23T07:31:23;47534.44;;;-141.97;55.96
7018;BME280;3549;42.162;24.726;2023-02-23T07:33:50;47538.28;;;-141.97;57.56
7018;BME280;3549;42.162;24.726;2023-02-23T07:36:17;47490.25;;;-141.97;55.20
7018;BME280;3549;42.162;24.726;2023-02-23T07:38:42;47499.84;;;-141.97;54.42
7018;BME280;3549;42.162;24.726;2023-02-23T07:41:07;47478.72;;;-141.97;53.51
7018;BME280;3549;42.162;24.726;2023-02-23T07:43:33;47457.56;;;-141.97;52.99
7018;BME280;3549;42.162;24.726;2023-02-23T07:45:59;47620.94;;;-141.97;53.06
7018;BME280;3549;42.162;24.726;2023-02-23T07:48:25;47605.56;;;-141.97;53.52
7018;BME280;3549;42.162;24.726;2023-02-23T07:50:50;47521.00;;;-141.97;53.99
7018;BME280;3549;42.162;24.726;2023-02-23T07:53:16;47569.06;;;-141.97;52.25
7018;BME280;3549;42.162;24.726;2023-02-23T07:55:41;47478.72;;;-141.97;52.46
7018;BME280;3549;42.162;24.726;2023-02-23T07:58:07;47472.94;;;-141.97;52.11
7018;BME280;3549;42.162;24.726;2023-02-23T08:00:34;47463.34;;;-141.97;51.92
7018;BME280;3549;42.162;24.726;2023-02-23T08:03:01;47526.75;;;-141.97;51.72
7018;BME280;3549;42.162;24.726;2023-02-23T08:05:27;47586.34;;;-141.97;50.64
7018;BME280;3549;42.162;24.726;2023-02-23T08:07:53;47461.41;;;-141.97;50.03
7018;BME280;3549;42.162;24.726;2023-02-23T08:10:20;47507.53;;;-141.97;49.66
7018;BME280;3549;42.162;24.726;2023-02-23T08:12:45;47578.66;;;-141.97;49.83
7018;BME280;3549;42.162;24.726;2023-02-23T08:15:10;47599.81;;;-141.97;50.57
7018;BME280;3549;42.162;24.726;2023-02-23T08:17:37;47484.47;;;-141.97;49.38
7018;BME280;3549;42.162;24.726;2023-02-23T08:20:04;47594.03;;;-141.97;49.83
7018;BME280;3549;42.162;24.726;2023-02-23T08:22:30;47465.25;;;-141.97;51.86
7018;BME280;3549;42.162;24.726;2023-02-23T08:24:55;47461.41;;;-141.97;52.57
7018;BME280;3549;42.162;24.726;2023-02-23T08:27:21;47603.66;;;-141.97;52.00
7018;BME280;3549;42.162;24.726;2023-02-23T08:29:46;47442.19;;;-141.97;49.96
7018;BME280;3549;42.162;24.726;2023-02-23T08:32:12;47501.78;;;-141.97;49.38
7018;BME280;3549;42.162;24.726;2023-02-23T08:34:41;47540.22;;;-141.97;50.75
7018;BME280;3549;42.162;24.726;2023-02-23T08:37:08;47517.16;;;-141.97;52.58
7018;BME280;3549;42.162;24.726;2023-02-23T08:39:34;47497.94;;;-141.97;51.18
7018;BME280;3549;42.162;24.726;2023-02-23T08:42:00;47557.53;;;-141.97;48.80
7018;BME280;3549;42.162;24.726;2023-02-23T08:44:26;47542.16;;;-141.97;48.79
7018;BME280;3549;42.162;24.726;2023-02-23T08:46:51;47490.25;;;-141.97;47.57
7018;BME280;3549;42.162;24.726;2023-02-23T08:49:18;47461.41;;;-141.97;47.56
7018;BME280;3549;42.162;24.726;2023-02-23T08:51:43;47536.38;;;-141.97;46.50
7018;BME280;3549;42.162;24.726;2023-02-23T08:54:11;47542.16;;;-141.97;45.84
7018;BME280;3549;42.162;24.726;2023-02-23T08:56:39;47519.06;;;-141.97;46.21
7018;BME280;3549;42.162;24.726;2023-02-23T08:59:05;47476.78;;;-141.97;45.85
7018;BME280;3549;42.162;24.726;2023-02-23T09:01:30;47540.22;;;-141.97;47.49
7018;BME280;3549;42.162;24.726;2023-02-23T09:03:56;47436.44;;;-141.97;47.46
7018;BME280;3549;42.162;24.726;2023-02-23T09:06:23;47515.22;;;-141.97;46.58
7018;BME280;3549;42.162;24.726;2023-02-23T09:08:53;47536.38;;;-141.97;47.10
7018;BME280;3549;42.162;24.726;2023-02-23T09:11:19;47563.28;;;-141.97;47.91
7018;BME280;3549;42.162;24.726;2023-02-23T09:13:45;47582.50;;;-141.97;47.46
7018;BME280;3549;42.162;24.726;2023-02-23T09:16:11;47521.00;;;-141.97;45.82
7018;BME280;3549;42.162;24.726;2023-02-23T09:18:37;47488.31;;;-141.97;45.33
7018;BME280;3549;42.162;24.726;2023-02-23T09:21:04;47474.88;;;-141.97;44.26
7018;BME280;3549;42.162;24.726;2023-02-23T09:23:30;47497.94;;;-141.97;43.20
7018;BME280;3549;42.162;24.726;2023-02-23T09:25:56;47353.78;;;-141.97;42.75
7018;BME280;3549;42.162;24.726;2023-02-23T09:28:21;47494.09;;;-141.97;42.50
7018;BME280;3549;42.162;24.726;2023-02-23T09:30:47;47490.25;;;-141.97;42.76
7018;BME280;3549;42.162;24.726;2023-02-23T09:33:13;47538.28;;;-141.97;43.03
7018;BME280;3549;42.162;24.726;2023-02-23T09:35:39;47478.72;;;-141.97;43.87
7018;BME280;3549;42.162;24.726;2023-02-23T09:38:06;47501.78;;;-141.97;43.78
7018;BME280;3549;42.162;24.726;2023-02-23T09:40:52;47480.63;;;-141.97;43.29
7018;BME280;3549;42.162;24.726;2023-02-23T09:43:23;47515.22;;;-141.97;42.58
7018;BME280;3549;42.162;24.726;2023-02-23T09:48:33;47507.53;;;-141.97;42.00
7018;BME280;3549;42.162;24.726;2023-02-23T09:50:59;47501.78;;;-141.97;42.90
7018;BME280;3549;42.162;24.726;2023-02-23T09:53:38;47496.00;;;-141.97;42.96
7018;BME280;3549;42.162;24.726;2023-02-23T09:56:10;47488.31;;;-141.97;41.89
7018;BME280;3549;42.162;24.726;2023-02-23T09:58:37;47474.88;;;-141.97;41.33
7018;BME280;3549;42.162;24.726;2023-02-23T10:06:31;47380.69;;;-141.97;42.60
7018;BME280;3549;42.162;24.726;2023-02-23T10:11:56;47505.63;;;-141.97;42.86
7018;BME280;3549;42.162;24.726;2023-02-23T10:14:35;47507.53;;;-141.97;41.81
7018;BME280;3549;42.162;24.726;2023-02-23T10:20:16;47532.53;;;-141.97;42.02
7018;BME280;3549;42.162;24.726;2023-02-23T10:22:43;47476.78;;;-141.97;41.03
7018;BME280;3549;42.162;24.726;2023-02-23T10:25:34;47436.44;;;-141.97;41.72
7018;BME280;3549;42.162;24.726;2023-02-23T10:27:59;47521.00;;;-141.97;41.36
7018;BME280;3549;42.162;24.726;2023-02-23T10:30:29;47515.22;;;-141.97;40.26
7018;BME280;3549;42.162;24.726;2023-02-23T10:35:30;47488.31;;;-141.97;40.63
7018;BME280;3549;42.162;24.726;2023-02-23T10:37:57;47524.84;;;-141.97;40.20
7018;BME280;3549;42.162;24.726;2023-02-23T10:40:26;47507.53;;;-141.97;39.30
7018;BME280;3549;42.162;24.726;2023-02-23T10:42:53;47409.53;;;-141.97;39.67
7018;BME280;3549;42.162;24.726;2023-02-23T10:45:25;47653.63;;;-141.97;39.83
7018;BME280;3549;42.162;24.726;2023-02-23T10:48:00;47505.63;;;-141.97;40.60
7018;BME280;3549;42.162;24.726;2023-02-23T10:50:29;47455.66;;;-141.97;40.90
7018;BME280;3549;42.162;24.726;2023-02-23T10:53:03;47511.38;;;-141.97;41.56
7018;BME280;3549;42.162;24.726;2023-02-23T10:55:35;47496.00;;;-141.97;40.82
7018;BME280;3549;42.162;24.726;2023-02-23T10:58:08;47501.78;;;-141.97;40.41
7018;BME280;3549;42.162;24.726;2023-02-23T11:00:39;47461.41;;;-141.97;40.47
7018;BME280;3549;42.162;24.726;2023-02-23T11:03:17;47526.75;;;-141.97;40.43
7018;BME280;3549;42.162;24.726;2023-02-23T11:05:48;47501.78;;;-141.97;40.23
7018;BME280;3549;42.162;24.726;2023-02-23T11:11:25;47524.84;;;-141.97;41.85
7018;BME280;3549;42.162;24.726;2023-02-23T11:13:54;47492.16;;;-141.97;41.13
7018;BME280;3549;42.162;24.726;2023-02-23T11:16:28;47509.47;;;-141.97;41.48
7018;BME280;3549;42.162;24.726;2023-02-23T11:18:55;47509.47;;;-141.97;42.28
7018;BME280;3549;42.162;24.726;2023-02-23T11:21:47;47469.09;;;-141.97;41.81
7018;BME280;3549;42.162;24.726;2023-02-23T11:24:29;47496.00;;;-141.97;41.50
7018;BME280;3549;42.162;24.726;2023-02-23T11:26:59;47549.84;;;-141.97;41.69
7018;BME280;3549;42.162;24.726;2023-02-23T11:29:42;47496.00;;;-141.97;41.50
7018;BME280;3549;42.162;24.726;2023-02-23T11:32:14;47486.41;;;-141.97;41.01
7018;BME280;3549;42.162;24.726;2023-02-23T11:34:40;47490.25;;;-141.97;41.30
7018;BME280;3549;42.162;24.726;2023-02-23T11:42:21;47509.47;;;-141.97;42.69
7018;BME280;3549;42.162;24.726;2023-02-23T11:47:19;47515.22;;;-141.97;41.18
7018;BME280;3549;42.162;24.726;2023-02-23T11:49:47;47411.44;;;-141.97;42.42
7018;BME280;3549;42.162;24.726;2023-02-23T11:52:17;47530.59;;;-141.97;42.87
7018;BME280;3549;42.162;24.726;2023-02-23T11:55:05;47647.84;;;-141.97;42.46
7018;BME280;3549;42.162;24.726;2023-02-23T11:57:34;47513.31;;;-141.97;42.65
7018;BME280;3549;42.162;24.726;2023-02-23T12:00:23;47490.25;;;-141.97;42.95
7018;BME280;3549;42.162;24.726;2023-02-23T12:02:55;47642.09;;;-141.97;42.23
7018;BME280;3549;42.162;24.726;2023-02-23T12:05:28;47486.41;;;-141.97;43.65
7018;BME280;3549;42.162;24.726;2023-02-23T12:10:31;47511.38;;;-141.97;45.00
7018;BME280;3549;42.162;24.726;2023-02-23T12:13:28;47511.38;;;-141.97;44.57
7018;BME280;3549;42.162;24.726;2023-02-23T12:16:17;47496.00;;;-141.97;44.19
7018;BME280;3549;42.162;24.726;2023-02-23T12:19:01;47522.91;;;-141.97;43.29
7018;BME280;3549;42.162;24.726;2023-02-23T12:21:45;47540.22;;;-141.97;43.00
7018;BME280;3549;42.162;24.726;2023-02-23T12:24:36;47511.38;;;-141.97;43.21
7018;BME280;3549;42.162;24.726;2023-02-23T12:27:04;47507.53;;;-141.97;44.54
7018;BME280;3549;42.162;24.726;2023-02-23T12:32:21;47503.69;;;-141.97;44.65
7018;BME280;3549;42.162;24.726;2023-02-23T12:35:00;47499.84;;;-141.97;44.04
7018;BME280;3549;42.162;24.726;2023-02-23T12:37:33;47538.28;;;-141.97;44.41
7018;BME280;3549;42.162;24.726;2023-02-23T12:45:21;47486.41;;;-141.97;44.60
7018;BME280;3549;42.162;24.726;2023-02-23T12:48:03;47536.38;;;-141.97;45.26
7018;BME280;3549;42.162;24.726;2023-02-23T12:56:11;47507.53;;;-141.97;43.77
7018;BME280;3549;42.162;24.726;2023-02-23T12:58:45;47503.69;;;-141.97;44.17
7018;BME280;3549;42.162;24.726;2023-02-23T13:01:24;47509.47;;;-141.97;45.74
7018;BME280;3549;42.162;24.726;2023-02-23T13:09:24;47511.38;;;-141.97;44.65
7018;BME280;3549;42.162;24.726;2023-02-23T13:12:27;47497.94;;;-141.97;45.69
7018;BME280;3549;42.162;24.726;2023-02-23T13:15:09;47540.22;;;-141.97;46.13
7018;BME280;3549;42.162;24.726;2023-02-23T13:20:43;47522.91;;;-141.97;44.85
7018;BME280;3549;42.162;24.726;2023-02-23T13:31:38;47480.63;;;-141.97;43.68
7018;BME280;3549;42.162;24.726;2023-02-23T13:34:09;47480.63;;;-141.97;43.93
7018;BME280;3549;42.162;24.726;2023-02-23T13:36:37;47546.00;;;-141.97;45.63
7018;BME280;3549;42.162;24.726;2023-02-23T13:47:51;47505.63;;;-141.97;47.76
7018;BME280;3549;42.162;24.726;2023-02-23T13:56:22;47536.38;;;-141.97;51.88
7018;BME280;3549;42.162;24.726;2023-02-23T13:59:01;47521.00;;;-141.97;53.17
7018;BME280;3549;42.162;24.726;2023-02-23T14:01:38;47530.59;;;-141.97;53.97
7018;BME280;3549;42.162;24.726;2023-02-23T14:04:06;47553.69;;;-141.97;54.17
7018;BME280;3549;42.162;24.726;2023-02-23T14:06:39;47530.59;;;-141.97;54.89
7018;BME280;3549;42.162;24.726;2023-02-23T14:09:20;47534.44;;;-141.97;54.52
7018;BME280;3549;42.162;24.726;2023-02-23T14:22:35;47551.75;;;-141.97;53.90
7018;BME280;3549;42.162;24.726;2023-02-23T14:28:02;47528.69;;;-141.97;55.03
7018;BME280;3549;42.162;24.726;2023-02-23T14:30:47;47536.38;;;-141.97;55.27
7018;BME280;3549;42.162;24.726;2023-02-23T14:38:50;47515.22;;;-141.97;57.46
7018;BME280;3549;42.162;24.726;2023-02-23T14:41:44;47559.44;;;-141.97;57.53
7018;BME280;3549;42.162;24.726;2023-02-23T14:44:30;47561.38;;;-141.97;58.48
7018;BME280;3549;42.162;24.726;2023-02-23T14:47:07;47534.44;;;-141.97;58.02
7018;BME280;3549;42.162;24.726;2023-02-23T14:49:37;47578.66;;;-141.97;57.97
7018;BME280;3549;42.162;24.726;2023-02-23T14:52:11;47515.22;;;-141.97;57.85
7018;BME280;3549;42.162;24.726;2023-02-23T14:54:39;47674.78;;;-141.97;58.99
7018;BME280;3549;42.162;24.726;2023-02-23T14:57:18;47563.28;;;-141.97;60.89
7018;BME280;3549;42.162;24.726;2023-02-23T14:59:44;47532.53;;;-141.97;62.69
7018;BME280;3549;42.162;24.726;2023-02-23T15:02:21;47557.53;;;-141.97;62.91
7018;BME280;3549;42.162;24.726;2023-02-23T15:04:48;47415.28;;;-141.97;63.24
7018;BME280;3549;42.162;24.726;2023-02-23T15:07:37;47574.81;;;-141.97;64.26
7018;BME280;3549;42.162;24.726;2023-02-23T15:10:10;47521.00;;;-141.97;64.95
7018;BME280;3549;42.162;24.726;2023-02-23T15:12:36;47538.28;;;-141.97;65.46
7018;BME280;3549;42.162;24.726;2023-02-23T15:15:06;47553.69;;;-141.97;65.53
7018;BME280;3549;42.162;24.726;2023-02-23T15:17:41;47530.59;;;-141.97;66.20
7018;BME280;3549;42.162;24.726;2023-02-23T15:20:13;47521.00;;;-141.97;66.77
7018;BME280;3549;42.162;24.726;2023-02-23T15:22:40;47546.00;;;-141.97;66.90
7018;BME280;3549;42.162;24.726;2023-02-23T15:25:20;47594.03;;;-141.97;67.98
7018;BME280;3549;42.162;24.726;2023-02-23T15:27:46;47530.59;;;-141.97;67.93
7018;BME280;3549;42.162;24.726;2023-02-23T15:30:28;47521.00;;;-141.97;68.02
7018;BME280;3549;42.162;24.726;2023-02-23T15:33:26;47580.59;;;-141.97;68.92
7018;BME280;3549;42.162;24.726;2023-02-23T15:36:07;47546.00;;;-141.97;68.81